sensor_id;sensor_type;location;lat;lon;timestamp;P1;durP1;ratioP1;P2;durP2;ratioP2
70247;SDS011;57641;51.416;5.506;2022-11-13T00:01:10;22.92;;;13.57;;
70247;SDS011;57641;51.416;5.506;2022-11-13T00:03:37;22.02;;;14.57;;
70247;SDS011;57641;51.416;5.506;2022-11-13T00:06:03;23.20;;;14.05;;
70247;SDS011;57641;51.416;5.506;2022-11-13T00:08:29;17.20;;;12.77;;
70247;SDS011;57641;51.416;5.506;2022-11-13T00:10:59;19.45;;;13.55;;
70247;SDS011;57641;51.416;5.506;2022-11-13T00:13:29;19.23;;;12.18;;
70247;SDS011;57641;51.416;5.506;2022-11-13T00:15:56;21.73;;;12.77;;
70247;SDS011;57641;51.416;5.506;2022-11-13T00:18:22;19.00;;;12.52;;
70247;SDS011;57641;51.416;5.506;2022-11-13T00:20:48;19.73;;;12.98;;
70247;SDS011;57641;51.416;5.506;2022-11-13T00:23:13;21.50;;;13.02;;
70247;SDS011;57641;51.416;5.506;2022-11-13T00:25:38;18.58;;;12.55;;
70247;SDS011;57641;51.416;5.506;2022-11-13T00:28:04;19.23;;;12.55;;
70247;SDS011;57641;51.416;5.506;2022-11-13T00:30:29;22.40;;;12.80;;
70247;SDS011;57641;51.416;5.506;2022-11-13T00:32:54;22.15;;;13.43;;
70247;SDS011;57641;51.416;5.506;2022-11-13T00:35:20;18.13;;;11.63;;
70247;SDS011;57641;51.416;5.506;2022-11-13T00:37:45;21.88;;;13.18;;
70247;SDS011;57641;51.416;5.506;2022-11-13T00:40:10;18.13;;;12.40;;
70247;SDS011;57641;51.416;5.506;2022-11-13T00:42:36;18.38;;;12.27;;
70247;SDS011;57641;51.416;5.506;2022-11-13T00:45:01;15.60;;;11.10;;
70247;SDS011;57641;51.416;5.506;2022-11-13T00:47:27;21.33;;;12.43;;
70247;SDS011;57641;51.416;5.506;2022-11-13T00:49:52;17.15;;;11.48;;
70247;SDS011;57641;51.416;5.506;2022-11-13T00:52:17;20.33;;;11.23;;
70247;SDS011;57641;51.416;5.506;2022-11-13T00:54:43;20.35;;;12.50;;
70247;SDS011;57641;51.416;5.506;2022-11-13T00:57:08;19.60;;;12.25;;
70247;SDS011;57641;51.416;5.506;2022-11-13T00:59:33;20.98;;;11.77;;
70247;SDS011;57641;51.416;5.506;2022-11-13T01:01:59;19.95;;;11.82;;
70247;SDS011;57641;51.416;5.506;2022-11-13T01:04:24;18.88;;;11.20;;
70247;SDS011;57641;51.416;5.506;2022-11-13T01:06:50;21.42;;;11.45;;
70247;SDS011;57641;51.416;5.506;2022-11-13T01:09:15;21.08;;;12.05;;
70247;SDS011;57641;51.416;5.506;2022-11-13T01:11:41;17.48;;;11.55;;
70247;SDS011;57641;51.416;5.506;2022-11-13T01:14:06;18.95;;;11.05;;
70247;SDS011;57641;51.416;5.506;2022-11-13T01:16:31;16.85;;;11.23;;
70247;SDS011;57641;51.416;5.506;2022-11-13T01:18:57;19.33;;;11.40;;
70247;SDS011;57641;51.416;5.506;2022-11-13T01:21:24;19.15;;;11.77;;
70247;SDS011;57641;51.416;5.506;2022-11-13T01:23:51;21.65;;;11.65;;
70247;SDS011;57641;51.416;5.506;2022-11-13T01:26:20;20.35;;;11.30;;
70247;SDS011;57641;51.416;5.506;2022-11-13T01:28:54;16.15;;;10.65;;
70247;SDS011;57641;51.416;5.506;2022-11-13T01:31:21;16.38;;;10.70;;
70247;SDS011;57641;51.416;5.506;2022-11-13T01:33:50;17.88;;;11.52;;
70247;SDS011;57641;51.416;5.506;2022-11-13T01:36:20;17.98;;;11.15;;
70247;SDS011;57641;51.416;5.506;2022-11-13T01:38:50;20.02;;;10.18;;
70247;SDS011;57641;51.416;5.506;2022-11-13T01:41:17;20.23;;;11.50;;
70247;SDS011;57641;51.416;5.506;2022-11-13T01:43:55;18.63;;;11.07;;
70247;SDS011;57641;51.416;5.506;2022-11-13T01:49:10;18.00;;;10.73;;
70247;SDS011;57641;51.416;5.506;2022-11-13T01:51:49;19.92;;;10.27;;
70247;SDS011;57641;51.416;5.506;2022-11-13T01:54:21;16.80;;;10.48;;
70247;SDS011;57641;51.416;5.506;2022-11-13T01:56:50;19.60;;;10.02;;
70247;SDS011;57641;51.416;5.506;2022-11-13T01:59:18;15.90;;;9.32;;
70247;SDS011;57641;51.416;5.506;2022-11-13T02:01:46;16.75;;;9.48;;
70247;SDS011;57641;51.416;5.506;2022-11-13T02:04:11;14.55;;;9.70;;
70247;SDS011;57641;51.416;5.506;2022-11-13T02:09:19;16.05;;;9.73;;
70247;SDS011;57641;51.416;5.506;2022-11-13T02:11:46;15.40;;;9.80;;
70247;SDS011;57641;51.416;5.506;2022-11-13T02:14:12;19.05;;;10.60;;
70247;SDS011;57641;51.416;5.506;2022-11-13T02:16:40;20.20;;;11.40;;
70247;SDS011;57641;51.416;5.506;2022-11-13T02:19:30;16.33;;;10.23;;
70247;SDS011;57641;51.416;5.506;2022-11-13T02:22:10;16.20;;;9.63;;
70247;SDS011;57641;51.416;5.506;2022-11-13T02:24:41;14.27;;;9.27;;
70247;SDS011;57641;51.416;5.506;2022-11-13T02:27:10;15.25;;;9.13;;
70247;SDS011;57641;51.416;5.506;2022-11-13T02:29:42;14.38;;;9.40;;
70247;SDS011;57641;51.416;5.506;2022-11-13T02:32:07;19.02;;;9.88;;
70247;SDS011;57641;51.416;5.506;2022-11-13T02:34:32;15.93;;;9.80;;
70247;SDS011;57641;51.416;5.506;2022-11-13T02:36:58;15.75;;;9.93;;
70247;SDS011;57641;51.416;5.506;2022-11-13T02:39:23;14.85;;;9.05;;
70247;SDS011;57641;51.416;5.506;2022-11-13T02:41:49;15.10;;;9.52;;
70247;SDS011;57641;51.416;5.506;2022-11-13T02:44:14;14.40;;;9.57;;
70247;SDS011;57641;51.416;5.506;2022-11-13T02:46:40;14.73;;;9.00;;
70247;SDS011;57641;51.416;5.506;2022-11-13T02:49:05;14.52;;;8.45;;
70247;SDS011;57641;51.416;5.506;2022-11-13T02:51:31;12.90;;;8.52;;
70247;SDS011;57641;51.416;5.506;2022-11-13T02:53:57;14.55;;;8.80;;
70247;SDS011;57641;51.416;5.506;2022-11-13T02:56:23;15.65;;;9.80;;
70247;SDS011;57641;51.416;5.506;2022-11-13T02:58:48;13.43;;;9.07;;
70247;SDS011;57641;51.416;5.506;2022-11-13T03:01:13;13.18;;;8.52;;
70247;SDS011;57641;51.416;5.506;2022-11-13T03:03:39;13.57;;;8.45;;
70247;SDS011;57641;51.416;5.506;2022-11-13T03:06:04;10.13;;;7.72;;
70247;SDS011;57641;51.416;5.506;2022-11-13T03:08:30;13.45;;;8.55;;
70247;SDS011;57641;51.416;5.506;2022-11-13T03:10:56;12.20;;;8.32;;
70247;SDS011;57641;51.416;5.506;2022-11-13T03:13:21;14.23;;;8.25;;
70247;SDS011;57641;51.416;5.506;2022-11-13T03:15:47;11.90;;;8.20;;
70247;SDS011;57641;51.416;5.506;2022-11-13T03:18:12;14.05;;;8.43;;
70247;SDS011;57641;51.416;5.506;2022-11-13T03:20:39;12.50;;;8.07;;
70247;SDS011;57641;51.416;5.506;2022-11-13T03:23:06;14.43;;;8.32;;
70247;SDS011;57641;51.416;5.506;2022-11-13T03:25:32;10.32;;;7.43;;
70247;SDS011;57641;51.416;5.506;2022-11-13T03:27:58;11.63;;;7.05;;
70247;SDS011;57641;51.416;5.506;2022-11-13T03:30:24;14.02;;;8.88;;
70247;SDS011;57641;51.416;5.506;2022-11-13T03:32:54;12.23;;;7.75;;
70247;SDS011;57641;51.416;5.506;2022-11-13T03:35:21;13.50;;;7.53;;
70247;SDS011;57641;51.416;5.506;2022-11-13T03:37:47;10.63;;;7.72;;
70247;SDS011;57641;51.416;5.506;2022-11-13T03:40:12;12.25;;;8.02;;
70247;SDS011;57641;51.416;5.506;2022-11-13T03:42:37;13.27;;;7.57;;
70247;SDS011;57641;51.416;5.506;2022-11-13T03:45:03;11.82;;;7.18;;
70247;SDS011;57641;51.416;5.506;2022-11-13T03:47:29;9.65;;;7.07;;
70247;SDS011;57641;51.416;5.506;2022-11-13T03:49:54;10.32;;;7.88;;
70247;SDS011;57641;51.416;5.506;2022-11-13T03:52:19;9.57;;;6.90;;
70247;SDS011;57641;51.416;5.506;2022-11-13T03:54:45;12.95;;;6.93;;
70247;SDS011;57641;51.416;5.506;2022-11-13T03:57:10;11.50;;;7.07;;
70247;SDS011;57641;51.416;5.506;2022-11-13T03:59:36;11.35;;;6.82;;
70247;SDS011;57641;51.416;5.506;2022-11-13T04:02:01;12.38;;;7.75;;
70247;SDS011;57641;51.416;5.506;2022-11-13T04:04:26;10.05;;;7.07;;
70247;SDS011;57641;51.416;5.506;2022-11-13T04:06:52;11.77;;;7.72;;
70247;SDS011;57641;51.416;5.506;2022-11-13T04:09:17;13.73;;;7.43;;
70247;SDS011;57641;51.416;5.506;2022-11-13T04:11:43;14.43;;;8.20;;
70247;SDS011;57641;51.416;5.506;2022-11-13T04:14:08;11.07;;;6.85;;
70247;SDS011;57641;51.416;5.506;2022-11-13T04:16:33;11.57;;;7.40;;
70247;SDS011;57641;51.416;5.506;2022-11-13T04:18:59;10.35;;;6.75;;
70247;SDS011;57641;51.416;5.506;2022-11-13T04:21:24;11.88;;;7.07;;
70247;SDS011;57641;51.416;5.506;2022-11-13T04:23:49;10.73;;;7.35;;
70247;SDS011;57641;51.416;5.506;2022-11-13T04:26:15;11.30;;;6.90;;
70247;SDS011;57641;51.416;5.506;2022-11-13T04:28:40;12.25;;;7.38;;
70247;SDS011;57641;51.416;5.506;2022-11-13T04:31:06;11.80;;;6.82;;
70247;SDS011;57641;51.416;5.506;2022-11-13T04:33:31;8.70;;;6.45;;
70247;SDS011;57641;51.416;5.506;2022-11-13T04:35:56;11.50;;;6.82;;
70247;SDS011;57641;51.416;5.506;2022-11-13T04:38:22;11.85;;;7.00;;
70247;SDS011;57641;51.416;5.506;2022-11-13T04:40:48;10.35;;;6.60;;
70247;SDS011;57641;51.416;5.506;2022-11-13T04:43:15;9.60;;;7.32;;
70247;SDS011;57641;51.416;5.506;2022-11-13T04:45:40;9.82;;;6.53;;
70247;SDS011;57641;51.416;5.506;2022-11-13T04:48:06;8.20;;;5.85;;
70247;SDS011;57641;51.416;5.506;2022-11-13T04:50:31;11.45;;;7.00;;
70247;SDS011;57641;51.416;5.506;2022-11-13T04:52:57;10.32;;;6.95;;
70247;SDS011;57641;51.416;5.506;2022-11-13T04:55:22;11.43;;;7.22;;
70247;SDS011;57641;51.416;5.506;2022-11-13T04:57:47;10.05;;;6.70;;
70247;SDS011;57641;51.416;5.506;2022-11-13T05:00:15;12.75;;;7.30;;
70247;SDS011;57641;51.416;5.506;2022-11-13T05:02:41;9.05;;;6.25;;
70247;SDS011;57641;51.416;5.506;2022-11-13T05:05:07;10.48;;;6.90;;
70247;SDS011;57641;51.416;5.506;2022-11-13T05:07:33;9.10;;;6.82;;
70247;SDS011;57641;51.416;5.506;2022-11-13T05:09:58;9.82;;;6.75;;
70247;SDS011;57641;51.416;5.506;2022-11-13T05:12:23;13.40;;;6.32;;
70247;SDS011;57641;51.416;5.506;2022-11-13T05:14:49;10.82;;;6.53;;
70247;SDS011;57641;51.416;5.506;2022-11-13T05:17:14;9.43;;;6.43;;
70247;SDS011;57641;51.416;5.506;2022-11-13T05:19:40;10.73;;;6.63;;
70247;SDS011;57641;51.416;5.506;2022-11-13T05:22:05;9.75;;;6.55;;
70247;SDS011;57641;51.416;5.506;2022-11-13T05:24:31;9.10;;;6.63;;
70247;SDS011;57641;51.416;5.506;2022-11-13T05:26:56;8.88;;;6.70;;
70247;SDS011;57641;51.416;5.506;2022-11-13T05:29:22;9.73;;;6.53;;
70247;SDS011;57641;51.416;5.506;2022-11-13T05:31:47;10.73;;;7.13;;
70247;SDS011;57641;51.416;5.506;2022-11-13T05:34:13;9.93;;;6.85;;
70247;SDS011;57641;51.416;5.506;2022-11-13T05:36:38;8.63;;;6.47;;
70247;SDS011;57641;51.416;5.506;2022-11-13T05:39:04;9.52;;;6.07;;
70247;SDS011;57641;51.416;5.506;2022-11-13T05:41:30;9.68;;;6.72;;
70247;SDS011;57641;51.416;5.506;2022-11-13T05:43:56;8.13;;;5.90;;
70247;SDS011;57641;51.416;5.506;2022-11-13T05:46:26;11.02;;;7.05;;
70247;SDS011;57641;51.416;5.506;2022-11-13T05:48:56;10.40;;;6.32;;
70247;SDS011;57641;51.416;5.506;2022-11-13T05:51:24;8.70;;;6.10;;
70247;SDS011;57641;51.416;5.506;2022-11-13T05:53:56;11.43;;;6.70;;
70247;SDS011;57641;51.416;5.506;2022-11-13T05:56:23;9.63;;;5.85;;
70247;SDS011;57641;51.416;5.506;2022-11-13T05:58:51;9.80;;;6.45;;
70247;SDS011;57641;51.416;5.506;2022-11-13T06:01:18;11.10;;;6.40;;
70247;SDS011;57641;51.416;5.506;2022-11-13T06:03:46;10.07;;;6.47;;
70247;SDS011;57641;51.416;5.506;2022-11-13T06:06:16;10.77;;;6.60;;
70247;SDS011;57641;51.416;5.506;2022-11-13T06:08:45;10.57;;;6.97;;
70247;SDS011;57641;51.416;5.506;2022-11-13T06:11:15;10.27;;;6.80;;
70247;SDS011;57641;51.416;5.506;2022-11-13T06:13:43;10.52;;;6.40;;
70247;SDS011;57641;51.416;5.506;2022-11-13T06:16:10;10.30;;;6.57;;
70247;SDS011;57641;51.416;5.506;2022-11-13T06:18:43;10.48;;;6.78;;
70247;SDS011;57641;51.416;5.506;2022-11-13T06:21:12;8.85;;;6.22;;
70247;SDS011;57641;51.416;5.506;2022-11-13T06:23:42;10.25;;;6.82;;
70247;SDS011;57641;51.416;5.506;2022-11-13T06:26:12;9.05;;;6.22;;
70247;SDS011;57641;51.416;5.506;2022-11-13T06:28:48;11.32;;;7.63;;
70247;SDS011;57641;51.416;5.506;2022-11-13T06:31:16;11.13;;;6.82;;
70247;SDS011;57641;51.416;5.506;2022-11-13T06:33:45;10.98;;;7.25;;
70247;SDS011;57641;51.416;5.506;2022-11-13T06:36:12;10.75;;;7.00;;
70247;SDS011;57641;51.416;5.506;2022-11-13T06:38:39;12.10;;;8.02;;
70247;SDS011;57641;51.416;5.506;2022-11-13T06:41:07;10.93;;;6.78;;
70247;SDS011;57641;51.416;5.506;2022-11-13T06:43:33;9.13;;;6.22;;
70247;SDS011;57641;51.416;5.506;2022-11-13T06:46:02;11.05;;;6.50;;
70247;SDS011;57641;51.416;5.506;2022-11-13T06:48:29;10.48;;;6.43;;
70247;SDS011;57641;51.416;5.506;2022-11-13T06:50:58;10.27;;;6.72;;
70247;SDS011;57641;51.416;5.506;2022-11-13T06:53:24;9.18;;;6.05;;
70247;SDS011;57641;51.416;5.506;2022-11-13T06:55:50;9.50;;;6.38;;
70247;SDS011;57641;51.416;5.506;2022-11-13T06:58:15;9.95;;;6.00;;
70247;SDS011;57641;51.416;5.506;2022-11-13T07:00:42;10.65;;;7.10;;
70247;SDS011;57641;51.416;5.506;2022-11-13T07:03:14;10.50;;;6.38;;
70247;SDS011;57641;51.416;5.506;2022-11-13T07:05:48;10.13;;;6.78;;
70247;SDS011;57641;51.416;5.506;2022-11-13T07:08:14;9.82;;;6.28;;
70247;SDS011;57641;51.416;5.506;2022-11-13T07:10:40;11.77;;;7.30;;
70247;SDS011;57641;51.416;5.506;2022-11-13T07:13:06;11.00;;;7.30;;
70247;SDS011;57641;51.416;5.506;2022-11-13T07:15:35;10.77;;;6.35;;
70247;SDS011;57641;51.416;5.506;2022-11-13T07:18:02;12.60;;;7.10;;
70247;SDS011;57641;51.416;5.506;2022-11-13T07:20:29;11.93;;;7.13;;
70247;SDS011;57641;51.416;5.506;2022-11-13T07:22:55;10.40;;;6.72;;
70247;SDS011;57641;51.416;5.506;2022-11-13T07:25:21;10.13;;;6.72;;
70247;SDS011;57641;51.416;5.506;2022-11-13T07:27:46;10.82;;;6.53;;
70247;SDS011;57641;51.416;5.506;2022-11-13T07:30:12;11.23;;;7.57;;
70247;SDS011;57641;51.416;5.506;2022-11-13T07:32:37;10.90;;;6.85;;
70247;SDS011;57641;51.416;5.506;2022-11-13T07:35:03;11.55;;;7.22;;
70247;SDS011;57641;51.416;5.506;2022-11-13T07:37:29;18.70;;;6.90;;
70247;SDS011;57641;51.416;5.506;2022-11-13T07:39:54;10.85;;;7.38;;
70247;SDS011;57641;51.416;5.506;2022-11-13T07:42:19;10.32;;;6.90;;
70247;SDS011;57641;51.416;5.506;2022-11-13T07:44:45;11.48;;;7.07;;
70247;SDS011;57641;51.416;5.506;2022-11-13T07:47:10;13.02;;;6.90;;
70247;SDS011;57641;51.416;5.506;2022-11-13T07:49:36;11.65;;;7.28;;
70247;SDS011;57641;51.416;5.506;2022-11-13T07:52:01;10.90;;;6.88;;
70247;SDS011;57641;51.416;5.506;2022-11-13T07:54:26;10.52;;;6.82;;
70247;SDS011;57641;51.416;5.506;2022-11-13T07:56:52;11.50;;;7.85;;
70247;SDS011;57641;51.416;5.506;2022-11-13T07:59:17;11.80;;;7.57;;
70247;SDS011;57641;51.416;5.506;2022-11-13T08:01:42;12.18;;;7.38;;
70247;SDS011;57641;51.416;5.506;2022-11-13T08:04:08;12.10;;;7.82;;
70247;SDS011;57641;51.416;5.506;2022-11-13T08:06:35;15.85;;;8.05;;
70247;SDS011;57641;51.416;5.506;2022-11-13T08:09:01;14.48;;;7.63;;
70247;SDS011;57641;51.416;5.506;2022-11-13T08:11:27;12.90;;;8.30;;
70247;SDS011;57641;51.416;5.506;2022-11-13T08:13:52;11.35;;;7.13;;
70247;SDS011;57641;51.416;5.506;2022-11-13T08:16:18;10.68;;;7.38;;
70247;SDS011;57641;51.416;5.506;2022-11-13T08:18:43;13.90;;;7.93;;
70247;SDS011;57641;51.416;5.506;2022-11-13T08:21:09;12.70;;;6.85;;
70247;SDS011;57641;51.416;5.506;2022-11-13T08:23:34;11.00;;;7.30;;
70247;SDS011;57641;51.416;5.506;2022-11-13T08:26:04;9.98;;;7.00;;
70247;SDS011;57641;51.416;5.506;2022-11-13T08:28:30;11.27;;;7.40;;
70247;SDS011;57641;51.416;5.506;2022-11-13T08:30:56;8.77;;;6.18;;
70247;SDS011;57641;51.416;5.506;2022-11-13T08:33:21;10.25;;;7.13;;
70247;SDS011;57641;51.416;5.506;2022-11-13T08:35:56;12.13;;;7.47;;
70247;SDS011;57641;51.416;5.506;2022-11-13T08:38:23;13.45;;;8.30;;
70247;SDS011;57641;51.416;5.506;2022-11-13T08:40:50;10.43;;;7.13;;
70247;SDS011;57641;51.416;5.506;2022-11-13T08:43:16;10.35;;;6.47;;
70247;SDS011;57641;51.416;5.506;2022-11-13T08:45:44;10.50;;;7.00;;
70247;SDS011;57641;51.416;5.506;2022-11-13T08:48:11;11.18;;;7.20;;
70247;SDS011;57641;51.416;5.506;2022-11-13T08:50:37;11.38;;;7.57;;
70247;SDS011;57641;51.416;5.506;2022-11-13T08:53:03;12.75;;;7.43;;
70247;SDS011;57641;51.416;5.506;2022-11-13T08:55:30;10.95;;;7.40;;
70247;SDS011;57641;51.416;5.506;2022-11-13T08:57:58;13.52;;;7.70;;
70247;SDS011;57641;51.416;5.506;2022-11-13T09:00:24;12.98;;;7.63;;
70247;SDS011;57641;51.416;5.506;2022-11-13T09:02:54;13.00;;;7.93;;
70247;SDS011;57641;51.416;5.506;2022-11-13T09:05:23;11.60;;;7.47;;
70247;SDS011;57641;51.416;5.506;2022-11-13T09:07:49;11.32;;;7.80;;
70247;SDS011;57641;51.416;5.506;2022-11-13T09:10:16;11.23;;;7.40;;
70247;SDS011;57641;51.416;5.506;2022-11-13T09:12:42;13.30;;;8.23;;
70247;SDS011;57641;51.416;5.506;2022-11-13T09:15:08;12.82;;;7.85;;
70247;SDS011;57641;51.416;5.506;2022-11-13T09:17:34;10.32;;;7.63;;
70247;SDS011;57641;51.416;5.506;2022-11-13T09:19:59;12.68;;;8.02;;
70247;SDS011;57641;51.416;5.506;2022-11-13T09:22:24;11.75;;;7.60;;
70247;SDS011;57641;51.416;5.506;2022-11-13T09:24:50;13.50;;;8.43;;
70247;SDS011;57641;51.416;5.506;2022-11-13T09:27:15;11.13;;;7.43;;
70247;SDS011;57641;51.416;5.506;2022-11-13T09:29:41;12.57;;;7.95;;
70247;SDS011;57641;51.416;5.506;2022-11-13T09:32:06;10.52;;;7.00;;
70247;SDS011;57641;51.416;5.506;2022-11-13T09:34:32;11.15;;;6.90;;
70247;SDS011;57641;51.416;5.506;2022-11-13T09:36:58;10.73;;;7.05;;
70247;SDS011;57641;51.416;5.506;2022-11-13T09:39:24;10.98;;;6.65;;
70247;SDS011;57641;51.416;5.506;2022-11-13T09:41:57;11.07;;;6.97;;
70247;SDS011;57641;51.416;5.506;2022-11-13T09:44:29;10.38;;;7.18;;
70247;SDS011;57641;51.416;5.506;2022-11-13T09:49:42;8.77;;;6.35;;
70247;SDS011;57641;51.416;5.506;2022-11-13T09:52:25;9.00;;;5.90;;
70247;SDS011;57641;51.416;5.506;2022-11-13T09:55:00;9.80;;;6.15;;
70247;SDS011;57641;51.416;5.506;2022-11-13T10:00:36;8.60;;;5.22;;
70247;SDS011;57641;51.416;5.506;2022-11-13T10:05:45;7.68;;;5.32;;
70247;SDS011;57641;51.416;5.506;2022-11-13T10:08:15;9.88;;;6.03;;
70247;SDS011;57641;51.416;5.506;2022-11-13T10:11:05;8.98;;;6.03;;
70247;SDS011;57641;51.416;5.506;2022-11-13T10:13:45;7.22;;;5.20;;
70247;SDS011;57641;51.416;5.506;2022-11-13T10:16:25;9.13;;;7.00;;
70247;SDS011;57641;51.416;5.506;2022-11-13T10:22:15;8.73;;;5.55;;
70247;SDS011;57641;51.416;5.506;2022-11-13T10:24:49;7.53;;;5.55;;
70247;SDS011;57641;51.416;5.506;2022-11-13T10:27:16;8.48;;;5.63;;
70247;SDS011;57641;51.416;5.506;2022-11-13T10:29:42;6.95;;;4.88;;
70247;SDS011;57641;51.416;5.506;2022-11-13T10:32:16;10.10;;;6.05;;
70247;SDS011;57641;51.416;5.506;2022-11-13T10:34:47;8.02;;;5.82;;
70247;SDS011;57641;51.416;5.506;2022-11-13T10:37:43;9.23;;;4.65;;
70247;SDS011;57641;51.416;5.506;2022-11-13T10:40:49;6.85;;;4.30;;
70247;SDS011;57641;51.416;5.506;2022-11-13T10:43:15;8.02;;;5.68;;
70247;SDS011;57641;51.416;5.506;2022-11-13T10:45:52;9.10;;;5.35;;
70247;SDS011;57641;51.416;5.506;2022-11-13T10:48:21;6.40;;;5.00;;
70247;SDS011;57641;51.416;5.506;2022-11-13T10:50:57;8.25;;;5.20;;
70247;SDS011;57641;51.416;5.506;2022-11-13T10:55:56;7.50;;;4.35;;
70247;SDS011;57641;51.416;5.506;2022-11-13T10:58:23;5.20;;;4.30;;
70247;SDS011;57641;51.416;5.506;2022-11-13T11:00:49;7.47;;;5.18;;
70247;SDS011;57641;51.416;5.506;2022-11-13T11:03:19;9.82;;;5.47;;
70247;SDS011;57641;51.416;5.506;2022-11-13T11:05:59;9.43;;;5.60;;
70247;SDS011;57641;51.416;5.506;2022-11-13T11:08:30;7.85;;;5.38;;
70247;SDS011;57641;51.416;5.506;2022-11-13T11:10:58;7.75;;;5.70;;
70247;SDS011;57641;51.416;5.506;2022-11-13T11:13:44;6.40;;;4.82;;
70247;SDS011;57641;51.416;5.506;2022-11-13T11:16:11;8.13;;;5.32;;
70247;SDS011;57641;51.416;5.506;2022-11-13T11:18:56;5.85;;;4.70;;
70247;SDS011;57641;51.416;5.506;2022-11-13T11:21:28;7.80;;;5.25;;
70247;SDS011;57641;51.416;5.506;2022-11-13T11:27:11;7.75;;;5.38;;
70247;SDS011;57641;51.416;5.506;2022-11-13T11:34:52;9.82;;;6.38;;
70247;SDS011;57641;51.416;5.506;2022-11-13T11:37:30;6.30;;;4.93;;
70247;SDS011;57641;51.416;5.506;2022-11-13T11:40:46;9.48;;;5.97;;
70247;SDS011;57641;51.416;5.506;2022-11-13T11:45:26;7.70;;;6.00;;
70247;SDS011;57641;51.416;5.506;2022-11-13T11:47:54;8.70;;;5.80;;
70247;SDS011;57641;51.416;5.506;2022-11-13T11:50:43;9.02;;;6.53;;
70247;SDS011;57641;51.416;5.506;2022-11-13T11:53:19;7.50;;;4.93;;
70247;SDS011;57641;51.416;5.506;2022-11-13T12:07:21;7.40;;;4.88;;
70247;SDS011;57641;51.416;5.506;2022-11-13T12:10:05;7.33;;;4.47;;
70247;SDS011;57641;51.416;5.506;2022-11-13T12:15:30;6.85;;;4.65;;
70247;SDS011;57641;51.416;5.506;2022-11-13T12:18:15;5.65;;;4.30;;
70247;SDS011;57641;51.416;5.506;2022-11-13T12:26:25;4.75;;;3.58;;
70247;SDS011;57641;51.416;5.506;2022-11-13T12:31:44;5.20;;;3.65;;
70247;SDS011;57641;51.416;5.506;2022-11-13T12:34:27;5.07;;;3.42;;
70247;SDS011;57641;51.416;5.506;2022-11-13T12:36:57;5.35;;;3.70;;
70247;SDS011;57641;51.416;5.506;2022-11-13T12:39:32;5.10;;;3.50;;
70247;SDS011;57641;51.416;5.506;2022-11-13T12:47:45;4.55;;;3.33;;
70247;SDS011;57641;51.416;5.506;2022-11-13T12:50:27;3.85;;;2.97;;
70247;SDS011;57641;51.416;5.506;2022-11-13T12:53:01;5.95;;;3.30;;
70247;SDS011;57641;51.416;5.506;2022-11-13T12:55:34;5.22;;;3.35;;
70247;SDS011;57641;51.416;5.506;2022-11-13T12:58:08;4.53;;;2.85;;
70247;SDS011;57641;51.416;5.506;2022-11-13T13:03:42;7.30;;;3.65;;
70247;SDS011;57641;51.416;5.506;2022-11-13T13:12:01;4.63;;;3.17;;
70247;SDS011;57641;51.416;5.506;2022-11-13T13:17:30;4.43;;;3.15;;
70247;SDS011;57641;51.416;5.506;2022-11-13T13:20:06;3.53;;;2.50;;
70247;SDS011;57641;51.416;5.506;2022-11-13T13:22:40;3.78;;;2.60;;
70247;SDS011;57641;51.416;5.506;2022-11-13T13:25:21;3.65;;;2.40;;
70247;SDS011;57641;51.416;5.506;2022-11-13T13:27:55;4.82;;;2.30;;
70247;SDS011;57641;51.416;5.506;2022-11-13T13:30:23;2.78;;;2.20;;
70247;SDS011;57641;51.416;5.506;2022-11-13T13:33:05;4.13;;;2.50;;
70247;SDS011;57641;51.416;5.506;2022-11-13T13:35:43;4.78;;;3.38;;
70247;SDS011;57641;51.416;5.506;2022-11-13T13:38:28;4.57;;;3.45;;
70247;SDS011;57641;51.416;5.506;2022-11-13T13:46:37;3.95;;;2.58;;
70247;SDS011;57641;51.416;5.506;2022-11-13T13:49:07;3.47;;;2.70;;
70247;SDS011;57641;51.416;5.506;2022-11-13T13:51:39;3.30;;;2.50;;
70247;SDS011;57641;51.416;5.506;2022-11-13T13:54:07;4.55;;;2.60;;
70247;SDS011;57641;51.416;5.506;2022-11-13T13:56:40;2.22;;;1.92;;
70247;SDS011;57641;51.416;5.506;2022-11-13T13:59:13;3.25;;;2.00;;
70247;SDS011;57641;51.416;5.506;2022-11-13T14:01:39;3.67;;;2.05;;
70247;SDS011;57641;51.416;5.506;2022-11-13T14:06:30;2.75;;;1.88;;
70247;SDS011;57641;51.416;5.506;2022-11-13T14:09:10;3.10;;;2.15;;
70247;SDS011;57641;51.416;5.506;2022-11-13T14:11:43;2.20;;;1.67;;
70247;SDS011;57641;51.416;5.506;2022-11-13T14:14:09;3.53;;;2.10;;
70247;SDS011;57641;51.416;5.506;2022-11-13T14:16:47;2.90;;;1.88;;
70247;SDS011;57641;51.416;5.506;2022-11-13T14:19:18;3.30;;;1.80;;
70247;SDS011;57641;51.416;5.506;2022-11-13T14:21:44;3.15;;;2.08;;
70247;SDS011;57641;51.416;5.506;2022-11-13T14:24:14;3.53;;;2.10;;
70247;SDS011;57641;51.416;5.506;2022-11-13T14:26:47;4.78;;;2.10;;
70247;SDS011;57641;51.416;5.506;2022-11-13T14:32:17;4.75;;;2.70;;
70247;SDS011;57641;51.416;5.506;2022-11-13T14:34:47;3.30;;;2.70;;
70247;SDS011;57641;51.416;5.506;2022-11-13T14:39:51;4.22;;;2.78;;
70247;SDS011;57641;51.416;5.506;2022-11-13T14:44:52;10.20;;;9.02;;
70247;SDS011;57641;51.416;5.506;2022-11-13T14:47:23;7.53;;;6.05;;
70247;SDS011;57641;51.416;5.506;2022-11-13T14:49:54;6.20;;;5.60;;
70247;SDS011;57641;51.416;5.506;2022-11-13T14:52:23;10.70;;;9.30;;
70247;SDS011;57641;51.416;5.506;2022-11-13T14:55:01;7.45;;;6.00;;
70247;SDS011;57641;51.416;5.506;2022-11-13T14:57:30;7.00;;;5.22;;
70247;SDS011;57641;51.416;5.506;2022-11-13T14:59:56;6.85;;;4.53;;
70247;SDS011;57641;51.416;5.506;2022-11-13T15:02:32;5.70;;;4.10;;
70247;SDS011;57641;51.416;5.506;2022-11-13T15:04:57;4.88;;;3.75;;
70247;SDS011;57641;51.416;5.506;2022-11-13T15:07:27;5.72;;;4.22;;
70247;SDS011;57641;51.416;5.506;2022-11-13T15:09:56;6.47;;;5.05;;
70247;SDS011;57641;51.416;5.506;2022-11-13T15:12:23;6.30;;;4.82;;
70247;SDS011;57641;51.416;5.506;2022-11-13T15:14:48;5.75;;;4.28;;
70247;SDS011;57641;51.416;5.506;2022-11-13T15:17:15;6.57;;;4.45;;
70247;SDS011;57641;51.416;5.506;2022-11-13T15:19:43;6.07;;;3.72;;
70247;SDS011;57641;51.416;5.506;2022-11-13T15:22:12;4.68;;;3.25;;
70247;SDS011;57641;51.416;5.506;2022-11-13T15:24:39;4.13;;;3.00;;
70247;SDS011;57641;51.416;5.506;2022-11-13T15:27:04;5.20;;;3.13;;
70247;SDS011;57641;51.416;5.506;2022-11-13T15:29:30;4.97;;;3.60;;
70247;SDS011;57641;51.416;5.506;2022-11-13T15:31:56;5.28;;;3.42;;
70247;SDS011;57641;51.416;5.506;2022-11-13T15:34:22;6.00;;;3.33;;
70247;SDS011;57641;51.416;5.506;2022-11-13T15:36:47;4.35;;;3.25;;
70247;SDS011;57641;51.416;5.506;2022-11-13T15:39:13;4.28;;;2.97;;
70247;SDS011;57641;51.416;5.506;2022-11-13T15:41:38;3.42;;;2.70;;
70247;SDS011;57641;51.416;5.506;2022-11-13T15:44:14;5.55;;;3.00;;
70247;SDS011;57641;51.416;5.506;2022-11-13T15:46:40;4.68;;;3.00;;
70247;SDS011;57641;51.416;5.506;2022-11-13T15:49:05;4.55;;;3.33;;
70247;SDS011;57641;51.416;5.506;2022-11-13T15:51:43;4.55;;;3.20;;
70247;SDS011;57641;51.416;5.506;2022-11-13T15:54:14;6.47;;;3.58;;
70247;SDS011;57641;51.416;5.506;2022-11-13T15:56:49;5.70;;;3.10;;
70247;SDS011;57641;51.416;5.506;2022-11-13T15:59:15;5.85;;;3.35;;
70247;SDS011;57641;51.416;5.506;2022-11-13T16:01:40;4.45;;;3.25;;
70247;SDS011;57641;51.416;5.506;2022-11-13T16:04:06;4.50;;;3.53;;
70247;SDS011;57641;51.416;5.506;2022-11-13T16:06:33;4.45;;;2.95;;
70247;SDS011;57641;51.416;5.506;2022-11-13T16:09:00;4.82;;;3.33;;
70247;SDS011;57641;51.416;5.506;2022-11-13T16:11:26;6.35;;;3.20;;
70247;SDS011;57641;51.416;5.506;2022-11-13T16:13:56;4.60;;;3.38;;